sensor_id;sensor_type;location;lat;lon;timestamp;P1;durP1;ratioP1;P2;durP2;ratioP2
19877;SDS011;10101;52.204;9.910;2022-10-15T00:00:35;4.53;;;3.90;;
19877;SDS011;10101;52.204;9.910;2022-10-15T00:03:02;5.93;;;4.13;;
19877;SDS011;10101;52.204;9.910;2022-10-15T00:05:29;4.53;;;3.80;;
19877;SDS011;10101;52.204;9.910;2022-10-15T00:07:56;5.97;;;4.47;;
19877;SDS011;10101;52.204;9.910;2022-10-15T00:10:23;7.00;;;4.17;;
19877;SDS011;10101;52.204;9.910;2022-10-15T00:12:51;5.60;;;4.13;;
19877;SDS011;10101;52.204;9.910;2022-10-15T00:15:18;5.33;;;4.07;;
19877;SDS011;10101;52.204;9.910;2022-10-15T00:17:44;5.63;;;4.40;;
19877;SDS011;10101;52.204;9.910;2022-10-15T00:20:12;8.30;;;4.47;;
19877;SDS011;10101;52.204;9.910;2022-10-15T00:22:39;5.30;;;4.07;;
19877;SDS011;10101;52.204;9.910;2022-10-15T00:25:06;5.47;;;3.90;;
19877;SDS011;10101;52.204;9.910;2022-10-15T00:27:34;6.87;;;3.77;;
19877;SDS011;10101;52.204;9.910;2022-10-15T00:30:03;5.03;;;3.70;;
19877;SDS011;10101;52.204;9.910;2022-10-15T00:32:31;4.20;;;3.80;;
19877;SDS011;10101;52.204;9.910;2022-10-15T00:34:58;4.43;;;3.67;;
19877;SDS011;10101;52.204;9.910;2022-10-15T00:37:25;4.90;;;3.73;;
19877;SDS011;10101;52.204;9.910;2022-10-15T00:39:52;4.60;;;3.80;;
19877;SDS011;10101;52.204;9.910;2022-10-15T00:42:18;9.67;;;4.87;;
19877;SDS011;10101;52.204;9.910;2022-10-15T00:44:46;5.60;;;4.40;;
19877;SDS011;10101;52.204;9.910;2022-10-15T00:47:22;5.77;;;4.37;;
19877;SDS011;10101;52.204;9.910;2022-10-15T00:49:54;8.23;;;4.60;;
19877;SDS011;10101;52.204;9.910;2022-10-15T00:52:26;4.87;;;3.87;;
19877;SDS011;10101;52.204;9.910;2022-10-15T00:54:58;4.87;;;4.27;;
19877;SDS011;10101;52.204;9.910;2022-10-15T00:57:30;5.00;;;3.93;;
19877;SDS011;10101;52.204;9.910;2022-10-15T00:59:59;4.80;;;4.27;;
19877;SDS011;10101;52.204;9.910;2022-10-15T01:02:30;5.40;;;4.07;;
19877;SDS011;10101;52.204;9.910;2022-10-15T01:04:57;5.37;;;4.17;;
19877;SDS011;10101;52.204;9.910;2022-10-15T01:07:24;5.63;;;3.93;;
19877;SDS011;10101;52.204;9.910;2022-10-15T01:09:51;4.23;;;3.63;;
19877;SDS011;10101;52.204;9.910;2022-10-15T01:12:19;5.17;;;3.80;;
19877;SDS011;10101;52.204;9.910;2022-10-15T01:14:55;4.67;;;3.83;;
19877;SDS011;10101;52.204;9.910;2022-10-15T01:17:33;4.20;;;3.57;;
19877;SDS011;10101;52.204;9.910;2022-10-15T01:23:08;4.57;;;3.90;;
19877;SDS011;10101;52.204;9.910;2022-10-15T01:25:54;4.20;;;3.80;;
19877;SDS011;10101;52.204;9.910;2022-10-15T01:28:30;4.57;;;4.10;;
19877;SDS011;10101;52.204;9.910;2022-10-15T01:31:09;4.67;;;4.17;;
19877;SDS011;10101;52.204;9.910;2022-10-15T01:33:42;4.87;;;4.17;;
19877;SDS011;10101;52.204;9.910;2022-10-15T01:36:14;5.70;;;3.70;;
19877;SDS011;10101;52.204;9.910;2022-10-15T01:38:45;5.60;;;4.43;;
19877;SDS011;10101;52.204;9.910;2022-10-15T01:41:17;6.07;;;4.77;;
19877;SDS011;10101;52.204;9.910;2022-10-15T01:43:54;8.17;;;5.40;;
19877;SDS011;10101;52.204;9.910;2022-10-15T01:46:26;6.97;;;5.40;;
19877;SDS011;10101;52.204;9.910;2022-10-15T01:48:57;7.47;;;5.97;;
19877;SDS011;10101;52.204;9.910;2022-10-15T01:51:26;9.67;;;6.00;;
19877;SDS011;10101;52.204;9.910;2022-10-15T01:53:55;9.90;;;5.70;;
19877;SDS011;10101;52.204;9.910;2022-10-15T01:56:23;7.87;;;5.83;;
19877;SDS011;10101;52.204;9.910;2022-10-15T01:58:52;8.57;;;6.37;;
19877;SDS011;10101;52.204;9.910;2022-10-15T02:01:21;8.20;;;6.20;;
19877;SDS011;10101;52.204;9.910;2022-10-15T02:03:50;10.73;;;6.10;;
19877;SDS011;10101;52.204;9.910;2022-10-15T02:06:19;8.37;;;6.10;;
19877;SDS011;10101;52.204;9.910;2022-10-15T02:11:38;5.60;;;4.77;;
19877;SDS011;10101;52.204;9.910;2022-10-15T02:14:14;5.80;;;4.53;;
19877;SDS011;10101;52.204;9.910;2022-10-15T02:16:46;7.17;;;4.27;;
19877;SDS011;10101;52.204;9.910;2022-10-15T02:19:23;5.93;;;4.50;;
19877;SDS011;10101;52.204;9.910;2022-10-15T02:21:56;5.23;;;4.07;;
19877;SDS011;10101;52.204;9.910;2022-10-15T02:24:28;5.20;;;4.57;;
19877;SDS011;10101;52.204;9.910;2022-10-15T02:27:00;4.33;;;3.77;;
19877;SDS011;10101;52.204;9.910;2022-10-15T02:29:29;7.63;;;5.27;;
19877;SDS011;10101;52.204;9.910;2022-10-15T02:31:59;6.50;;;5.43;;
19877;SDS011;10101;52.204;9.910;2022-10-15T02:34:28;8.70;;;4.83;;
19877;SDS011;10101;52.204;9.910;2022-10-15T02:36:57;6.70;;;5.50;;
19877;SDS011;10101;52.204;9.910;2022-10-15T02:39:27;5.40;;;4.13;;
19877;SDS011;10101;52.204;9.910;2022-10-15T02:41:54;6.87;;;5.63;;
19877;SDS011;10101;52.204;9.910;2022-10-15T02:44:22;9.70;;;6.43;;
19877;SDS011;10101;52.204;9.910;2022-10-15T02:46:49;16.20;;;7.80;;
19877;SDS011;10101;52.204;9.910;2022-10-15T02:49:16;6.97;;;5.50;;
19877;SDS011;10101;52.204;9.910;2022-10-15T02:51:44;7.87;;;6.40;;
19877;SDS011;10101;52.204;9.910;2022-10-15T02:54:10;9.00;;;6.50;;
19877;SDS011;10101;52.204;9.910;2022-10-15T02:56:37;9.67;;;7.60;;
19877;SDS011;10101;52.204;9.910;2022-10-15T02:59:04;8.47;;;6.40;;
19877;SDS011;10101;52.204;9.910;2022-10-15T03:01:31;8.70;;;6.87;;
19877;SDS011;10101;52.204;9.910;2022-10-15T03:03:58;9.97;;;6.80;;
19877;SDS011;10101;52.204;9.910;2022-10-15T03:06:25;8.03;;;5.93;;
19877;SDS011;10101;52.204;9.910;2022-10-15T03:08:53;7.00;;;5.70;;
19877;SDS011;10101;52.204;9.910;2022-10-15T03:11:20;9.30;;;6.77;;
19877;SDS011;10101;52.204;9.910;2022-10-15T03:13:47;8.57;;;6.57;;
19877;SDS011;10101;52.204;9.910;2022-10-15T03:16:14;10.20;;;6.87;;
19877;SDS011;10101;52.204;9.910;2022-10-15T03:18:40;8.60;;;6.07;;
19877;SDS011;10101;52.204;9.910;2022-10-15T03:21:08;8.27;;;5.80;;
19877;SDS011;10101;52.204;9.910;2022-10-15T03:23:34;8.97;;;6.43;;
19877;SDS011;10101;52.204;9.910;2022-10-15T03:26:02;11.80;;;7.60;;
19877;SDS011;10101;52.204;9.910;2022-10-15T03:28:29;8.53;;;6.67;;
19877;SDS011;10101;52.204;9.910;2022-10-15T03:30:56;8.47;;;5.70;;
19877;SDS011;10101;52.204;9.910;2022-10-15T03:33:23;10.83;;;7.03;;
19877;SDS011;10101;52.204;9.910;2022-10-15T03:35:50;9.70;;;6.70;;
19877;SDS011;10101;52.204;9.910;2022-10-15T03:38:17;10.27;;;7.27;;
19877;SDS011;10101;52.204;9.910;2022-10-15T03:40:44;10.33;;;6.93;;
19877;SDS011;10101;52.204;9.910;2022-10-15T03:43:12;9.60;;;7.00;;
19877;SDS011;10101;52.204;9.910;2022-10-15T03:45:39;8.70;;;6.10;;
19877;SDS011;10101;52.204;9.910;2022-10-15T03:48:06;9.53;;;6.10;;
19877;SDS011;10101;52.204;9.910;2022-10-15T03:50:32;9.33;;;6.40;;
19877;SDS011;10101;52.204;9.910;2022-10-15T03:53:01;9.17;;;6.50;;
19877;SDS011;10101;52.204;9.910;2022-10-15T03:55:28;13.63;;;6.80;;
19877;SDS011;10101;52.204;9.910;2022-10-15T03:57:55;10.40;;;7.40;;
19877;SDS011;10101;52.204;9.910;2022-10-15T04:00:23;10.50;;;7.13;;
19877;SDS011;10101;52.204;9.910;2022-10-15T04:02:50;10.17;;;7.63;;
19877;SDS011;10101;52.204;9.910;2022-10-15T04:05:17;9.83;;;7.33;;
19877;SDS011;10101;52.204;9.910;2022-10-15T04:07:44;8.33;;;6.13;;
19877;SDS011;10101;52.204;9.910;2022-10-15T04:10:10;9.03;;;5.80;;
19877;SDS011;10101;52.204;9.910;2022-10-15T04:12:37;11.30;;;6.77;;
19877;SDS011;10101;52.204;9.910;2022-10-15T04:15:04;10.27;;;6.97;;
19877;SDS011;10101;52.204;9.910;2022-10-15T04:17:33;12.10;;;7.70;;
19877;SDS011;10101;52.204;9.910;2022-10-15T04:19:59;11.90;;;8.03;;
19877;SDS011;10101;52.204;9.910;2022-10-15T04:22:26;11.43;;;7.53;;
19877;SDS011;10101;52.204;9.910;2022-10-15T04:24:53;9.73;;;7.07;;
19877;SDS011;10101;52.204;9.910;2022-10-15T04:27:20;9.07;;;6.50;;
19877;SDS011;10101;52.204;9.910;2022-10-15T04:29:46;11.00;;;7.27;;
19877;SDS011;10101;52.204;9.910;2022-10-15T04:32:14;9.83;;;7.63;;
19877;SDS011;10101;52.204;9.910;2022-10-15T04:34:42;11.97;;;7.23;;
19877;SDS011;10101;52.204;9.910;2022-10-15T04:37:10;9.77;;;6.57;;
19877;SDS011;10101;52.204;9.910;2022-10-15T04:39:37;11.27;;;7.63;;
19877;SDS011;10101;52.204;9.910;2022-10-15T04:42:04;9.93;;;6.83;;
19877;SDS011;10101;52.204;9.910;2022-10-15T04:44:30;9.83;;;7.33;;
19877;SDS011;10101;52.204;9.910;2022-10-15T04:46:57;10.60;;;7.33;;
19877;SDS011;10101;52.204;9.910;2022-10-15T04:49:24;5.87;;;4.60;;
19877;SDS011;10101;52.204;9.910;2022-10-15T04:51:52;11.67;;;8.40;;
19877;SDS011;10101;52.204;9.910;2022-10-15T04:54:18;11.40;;;7.20;;
19877;SDS011;10101;52.204;9.910;2022-10-15T04:56:45;9.47;;;7.47;;
19877;SDS011;10101;52.204;9.910;2022-10-15T04:59:12;8.27;;;5.43;;
19877;SDS011;10101;52.204;9.910;2022-10-15T05:01:39;8.97;;;5.63;;
19877;SDS011;10101;52.204;9.910;2022-10-15T05:04:06;9.73;;;7.23;;
19877;SDS011;10101;52.204;9.910;2022-10-15T05:06:35;5.57;;;4.60;;
19877;SDS011;10101;52.204;9.910;2022-10-15T05:09:03;9.30;;;6.73;;
19877;SDS011;10101;52.204;9.910;2022-10-15T05:11:29;9.40;;;6.23;;
19877;SDS011;10101;52.204;9.910;2022-10-15T05:13:56;8.00;;;6.23;;
19877;SDS011;10101;52.204;9.910;2022-10-15T05:16:27;10.67;;;7.07;;
19877;SDS011;10101;52.204;9.910;2022-10-15T05:18:55;11.43;;;7.90;;
19877;SDS011;10101;52.204;9.910;2022-10-15T05:21:23;7.57;;;5.47;;
19877;SDS011;10101;52.204;9.910;2022-10-15T05:23:50;7.80;;;5.80;;
19877;SDS011;10101;52.204;9.910;2022-10-15T05:26:19;12.00;;;8.23;;
19877;SDS011;10101;52.204;9.910;2022-10-15T05:28:47;14.13;;;9.43;;
19877;SDS011;10101;52.204;9.910;2022-10-15T05:31:17;15.03;;;9.80;;
19877;SDS011;10101;52.204;9.910;2022-10-15T05:33:45;12.60;;;8.93;;
19877;SDS011;10101;52.204;9.910;2022-10-15T05:36:13;14.67;;;9.13;;
19877;SDS011;10101;52.204;9.910;2022-10-15T05:38:41;13.50;;;8.33;;
19877;SDS011;10101;52.204;9.910;2022-10-15T05:41:08;12.03;;;8.23;;
19877;SDS011;10101;52.204;9.910;2022-10-15T05:43:37;11.53;;;8.43;;
19877;SDS011;10101;52.204;9.910;2022-10-15T05:46:04;13.87;;;8.60;;
19877;SDS011;10101;52.204;9.910;2022-10-15T05:48:31;15.33;;;8.57;;
19877;SDS011;10101;52.204;9.910;2022-10-15T05:51:01;9.27;;;6.63;;
19877;SDS011;10101;52.204;9.910;2022-10-15T05:53:28;12.90;;;8.77;;
19877;SDS011;10101;52.204;9.910;2022-10-15T05:55:55;13.17;;;8.10;;
19877;SDS011;10101;52.204;9.910;2022-10-15T05:58:23;12.43;;;8.60;;
19877;SDS011;10101;52.204;9.910;2022-10-15T06:00:54;15.07;;;8.77;;
19877;SDS011;10101;52.204;9.910;2022-10-15T06:03:22;14.43;;;8.77;;
19877;SDS011;10101;52.204;9.910;2022-10-15T06:05:49;10.23;;;7.33;;
19877;SDS011;10101;52.204;9.910;2022-10-15T06:08:16;15.23;;;8.70;;
19877;SDS011;10101;52.204;9.910;2022-10-15T06:10:44;14.03;;;8.90;;
19877;SDS011;10101;52.204;9.910;2022-10-15T06:13:11;12.30;;;8.67;;
19877;SDS011;10101;52.204;9.910;2022-10-15T06:15:38;12.27;;;8.53;;
19877;SDS011;10101;52.204;9.910;2022-10-15T06:18:07;10.60;;;7.50;;
19877;SDS011;10101;52.204;9.910;2022-10-15T06:20:34;12.37;;;8.23;;
19877;SDS011;10101;52.204;9.910;2022-10-15T06:23:01;13.60;;;9.43;;
19877;SDS011;10101;52.204;9.910;2022-10-15T06:25:29;13.93;;;8.70;;
19877;SDS011;10101;52.204;9.910;2022-10-15T06:27:59;15.00;;;9.57;;
19877;SDS011;10101;52.204;9.910;2022-10-15T06:30:26;13.10;;;8.97;;
19877;SDS011;10101;52.204;9.910;2022-10-15T06:32:53;12.87;;;8.93;;
19877;SDS011;10101;52.204;9.910;2022-10-15T06:35:21;13.90;;;9.10;;
19877;SDS011;10101;52.204;9.910;2022-10-15T06:37:49;12.70;;;9.07;;
19877;SDS011;10101;52.204;9.910;2022-10-15T06:40:15;12.77;;;8.20;;
19877;SDS011;10101;52.204;9.910;2022-10-15T06:42:42;14.50;;;8.70;;
19877;SDS011;10101;52.204;9.910;2022-10-15T06:45:09;13.37;;;9.13;;
19877;SDS011;10101;52.204;9.910;2022-10-15T06:47:37;16.07;;;9.10;;
19877;SDS011;10101;52.204;9.910;2022-10-15T06:50:05;11.53;;;8.27;;
19877;SDS011;10101;52.204;9.910;2022-10-15T06:52:34;13.07;;;8.83;;
19877;SDS011;10101;52.204;9.910;2022-10-15T06:55:00;13.33;;;8.73;;
19877;SDS011;10101;52.204;9.910;2022-10-15T06:57:27;13.17;;;9.20;;
19877;SDS011;10101;52.204;9.910;2022-10-15T06:59:54;14.93;;;8.47;;
19877;SDS011;10101;52.204;9.910;2022-10-15T07:02:21;15.37;;;9.17;;
19877;SDS011;10101;52.204;9.910;2022-10-15T07:04:48;12.63;;;9.13;;
19877;SDS011;10101;52.204;9.910;2022-10-15T07:07:15;14.10;;;9.13;;
19877;SDS011;10101;52.204;9.910;2022-10-15T07:09:44;13.07;;;9.40;;
19877;SDS011;10101;52.204;9.910;2022-10-15T07:12:12;14.47;;;9.30;;
19877;SDS011;10101;52.204;9.910;2022-10-15T07:14:40;15.47;;;9.30;;
19877;SDS011;10101;52.204;9.910;2022-10-15T07:17:07;12.67;;;8.37;;
19877;SDS011;10101;52.204;9.910;2022-10-15T07:19:34;11.43;;;8.60;;
19877;SDS011;10101;52.204;9.910;2022-10-15T07:22:00;9.77;;;6.10;;
19877;SDS011;10101;52.204;9.910;2022-10-15T07:24:27;13.37;;;8.70;;
19877;SDS011;10101;52.204;9.910;2022-10-15T07:26:55;8.97;;;5.93;;
19877;SDS011;10101;52.204;9.910;2022-10-15T07:29:22;7.43;;;5.77;;
19877;SDS011;10101;52.204;9.910;2022-10-15T07:31:49;10.53;;;7.10;;
19877;SDS011;10101;52.204;9.910;2022-10-15T07:34:15;11.10;;;8.03;;
19877;SDS011;10101;52.204;9.910;2022-10-15T07:36:42;10.93;;;7.20;;
19877;SDS011;10101;52.204;9.910;2022-10-15T07:39:09;12.90;;;9.17;;
19877;SDS011;10101;52.204;9.910;2022-10-15T07:41:36;15.77;;;9.57;;
19877;SDS011;10101;52.204;9.910;2022-10-15T07:44:04;15.90;;;9.47;;
19877;SDS011;10101;52.204;9.910;2022-10-15T07:46:31;16.97;;;10.17;;
19877;SDS011;10101;52.204;9.910;2022-10-15T07:48:57;15.00;;;9.67;;
19877;SDS011;10101;52.204;9.910;2022-10-15T07:51:24;11.40;;;8.30;;
19877;SDS011;10101;52.204;9.910;2022-10-15T07:53:51;17.63;;;10.00;;
19877;SDS011;10101;52.204;9.910;2022-10-15T07:56:17;16.13;;;10.47;;
19877;SDS011;10101;52.204;9.910;2022-10-15T07:58:44;16.30;;;10.53;;
19877;SDS011;10101;52.204;9.910;2022-10-15T08:01:17;17.07;;;11.63;;
19877;SDS011;10101;52.204;9.910;2022-10-15T08:03:45;19.60;;;12.47;;
19877;SDS011;10101;52.204;9.910;2022-10-15T08:06:12;16.33;;;10.77;;
19877;SDS011;10101;52.204;9.910;2022-10-15T08:08:39;14.33;;;9.93;;
19877;SDS011;10101;52.204;9.910;2022-10-15T08:11:06;12.13;;;8.87;;
19877;SDS011;10101;52.204;9.910;2022-10-15T08:13:35;14.57;;;9.43;;
19877;SDS011;10101;52.204;9.910;2022-10-15T08:16:05;15.77;;;10.50;;
19877;SDS011;10101;52.204;9.910;2022-10-15T08:18:33;18.03;;;11.20;;
19877;SDS011;10101;52.204;9.910;2022-10-15T08:21:01;15.00;;;10.20;;
19877;SDS011;10101;52.204;9.910;2022-10-15T08:23:29;17.47;;;10.40;;
19877;SDS011;10101;52.204;9.910;2022-10-15T08:25:57;16.33;;;11.17;;
19877;SDS011;10101;52.204;9.910;2022-10-15T08:28:24;16.17;;;11.27;;
19877;SDS011;10101;52.204;9.910;2022-10-15T08:30:51;16.53;;;10.37;;
19877;SDS011;10101;52.204;9.910;2022-10-15T08:33:18;13.13;;;9.53;;
19877;SDS011;10101;52.204;9.910;2022-10-15T08:35:46;13.87;;;10.13;;
19877;SDS011;10101;52.204;9.910;2022-10-15T08:38:13;19.17;;;12.53;;
19877;SDS011;10101;52.204;9.910;2022-10-15T08:40:39;16.37;;;11.57;;
19877;SDS011;10101;52.204;9.910;2022-10-15T08:43:12;14.97;;;11.30;;
19877;SDS011;10101;52.204;9.910;2022-10-15T08:45:45;15.87;;;11.17;;
19877;SDS011;10101;52.204;9.910;2022-10-15T08:48:13;15.60;;;11.80;;
19877;SDS011;10101;52.204;9.910;2022-10-15T08:50:47;15.50;;;10.23;;
19877;SDS011;10101;52.204;9.910;2022-10-15T08:53:20;17.43;;;12.20;;
19877;SDS011;10101;52.204;9.910;2022-10-15T08:55:49;15.60;;;11.10;;
19877;SDS011;10101;52.204;9.910;2022-10-15T08:58:20;16.40;;;11.07;;
19877;SDS011;10101;52.204;9.910;2022-10-15T09:00:51;16.60;;;11.73;;
19877;SDS011;10101;52.204;9.910;2022-10-15T09:03:24;14.30;;;10.23;;
19877;SDS011;10101;52.204;9.910;2022-10-15T09:06:00;16.83;;;11.53;;
19877;SDS011;10101;52.204;9.910;2022-10-15T09:08:34;13.87;;;10.87;;
19877;SDS011;10101;52.204;9.910;2022-10-15T09:11:10;18.20;;;11.20;;
19877;SDS011;10101;52.204;9.910;2022-10-15T09:13:42;14.73;;;10.13;;
19877;SDS011;10101;52.204;9.910;2022-10-15T09:16:11;17.03;;;10.63;;
19877;SDS011;10101;52.204;9.910;2022-10-15T09:18:41;11.20;;;8.53;;
19877;SDS011;10101;52.204;9.910;2022-10-15T09:21:13;12.43;;;9.87;;
19877;SDS011;10101;52.204;9.910;2022-10-15T09:23:40;14.93;;;9.43;;
19877;SDS011;10101;52.204;9.910;2022-10-15T09:26:14;13.10;;;9.63;;
19877;SDS011;10101;52.204;9.910;2022-10-15T09:28:48;13.10;;;9.77;;
19877;SDS011;10101;52.204;9.910;2022-10-15T09:31:20;12.40;;;9.47;;
19877;SDS011;10101;52.204;9.910;2022-10-15T09:33:53;11.77;;;8.60;;
19877;SDS011;10101;52.204;9.910;2022-10-15T09:36:31;14.30;;;9.27;;
19877;SDS011;10101;52.204;9.910;2022-10-15T09:39:04;11.67;;;8.50;;
19877;SDS011;10101;52.204;9.910;2022-10-15T09:41:49;9.47;;;6.97;;
19877;SDS011;10101;52.204;9.910;2022-10-15T09:44:21;10.87;;;7.03;;
19877;SDS011;10101;52.204;9.910;2022-10-15T09:46:51;11.13;;;7.47;;
19877;SDS011;10101;52.204;9.910;2022-10-15T09:49:19;10.37;;;7.70;;
19877;SDS011;10101;52.204;9.910;2022-10-15T09:51:52;10.23;;;7.13;;
19877;SDS011;10101;52.204;9.910;2022-10-15T09:54:28;14.80;;;8.20;;
19877;SDS011;10101;52.204;9.910;2022-10-15T09:57:03;8.57;;;6.50;;
19877;SDS011;10101;52.204;9.910;2022-10-15T09:59:34;7.80;;;6.20;;
19877;SDS011;10101;52.204;9.910;2022-10-15T10:02:02;8.73;;;6.50;;
19877;SDS011;10101;52.204;9.910;2022-10-15T10:04:31;7.80;;;5.87;;
19877;SDS011;10101;52.204;9.910;2022-10-15T10:07:00;11.37;;;7.00;;
19877;SDS011;10101;52.204;9.910;2022-10-15T10:09:32;9.57;;;6.23;;
19877;SDS011;10101;52.204;9.910;2022-10-15T10:12:01;7.90;;;6.07;;
19877;SDS011;10101;52.204;9.910;2022-10-15T10:14:31;7.80;;;6.13;;
19877;SDS011;10101;52.204;9.910;2022-10-15T10:17:11;7.53;;;6.23;;
19877;SDS011;10101;52.204;9.910;2022-10-15T10:19:41;7.87;;;6.53;;
19877;SDS011;10101;52.204;9.910;2022-10-15T10:22:14;8.80;;;6.73;;
19877;SDS011;10101;52.204;9.910;2022-10-15T10:24:42;10.13;;;7.27;;
19877;SDS011;10101;52.204;9.910;2022-10-15T10:27:21;9.23;;;7.10;;
19877;SDS011;10101;52.204;9.910;2022-10-15T10:29:54;9.87;;;7.00;;
19877;SDS011;10101;52.204;9.910;2022-10-15T10:32:25;11.37;;;7.07;;
19877;SDS011;10101;52.204;9.910;2022-10-15T10:34:54;8.77;;;6.80;;
19877;SDS011;10101;52.204;9.910;2022-10-15T10:37:23;11.33;;;7.10;;
19877;SDS011;10101;52.204;9.910;2022-10-15T10:39:51;9.70;;;7.43;;
19877;SDS011;10101;52.204;9.910;2022-10-15T10:42:24;9.20;;;7.30;;
19877;SDS011;10101;52.204;9.910;2022-10-15T10:44:53;9.30;;;6.87;;
19877;SDS011;10101;52.204;9.910;2022-10-15T10:47:20;8.97;;;6.60;;
19877;SDS011;10101;52.204;9.910;2022-10-15T10:49:48;8.77;;;6.50;;
19877;SDS011;10101;52.204;9.910;2022-10-15T10:52:24;7.43;;;5.90;;
19877;SDS011;10101;52.204;9.910;2022-10-15T10:55:00;6.27;;;5.10;;
19877;SDS011;10101;52.204;9.910;2022-10-15T10:57:31;5.83;;;5.23;;
19877;SDS011;10101;52.204;9.910;2022-10-15T11:00:05;8.37;;;4.93;;
19877;SDS011;10101;52.204;9.910;2022-10-15T11:02:33;9.70;;;5.10;;
19877;SDS011;10101;52.204;9.910;2022-10-15T11:05:05;5.47;;;4.13;;
19877;SDS011;10101;52.204;9.910;2022-10-15T11:07:35;5.90;;;4.40;;
19877;SDS011;10101;52.204;9.910;2022-10-15T11:10:10;4.13;;;3.63;;
19877;SDS011;10101;52.204;9.910;2022-10-15T11:12:55;6.87;;;3.80;;
19877;SDS011;10101;52.204;9.910;2022-10-15T11:15:35;3.60;;;3.10;;
19877;SDS011;10101;52.204;9.910;2022-10-15T11:18:22;3.93;;;2.90;;
19877;SDS011;10101;52.204;9.910;2022-10-15T11:21:00;5.00;;;3.63;;
19877;SDS011;10101;52.204;9.910;2022-10-15T11:23:40;3.90;;;3.30;;
19877;SDS011;10101;52.204;9.910;2022-10-15T11:26:33;3.57;;;3.27;;
19877;SDS011;10101;52.204;9.910;2022-10-15T11:29:10;3.47;;;3.17;;
19877;SDS011;10101;52.204;9.910;2022-10-15T11:31:43;4.20;;;3.27;;
19877;SDS011;10101;52.204;9.910;2022-10-15T11:34:21;4.70;;;3.00;;
19877;SDS011;10101;52.204;9.910;2022-10-15T11:36:58;3.10;;;2.50;;
19877;SDS011;10101;52.204;9.910;2022-10-15T11:39:44;2.77;;;2.47;;
19877;SDS011;10101;52.204;9.910;2022-10-15T11:42:23;2.87;;;2.57;;
19877;SDS011;10101;52.204;9.910;2022-10-15T11:45:01;2.50;;;2.30;;
19877;SDS011;10101;52.204;9.910;2022-10-15T11:47:43;2.90;;;2.60;;
19877;SDS011;10101;52.204;9.910;2022-10-15T11:50:21;2.67;;;2.47;;
19877;SDS011;10101;52.204;9.910;2022-10-15T11:52:57;3.83;;;2.67;;
19877;SDS011;10101;52.204;9.910;2022-10-15T11:55:45;3.10;;;2.63;;
19877;SDS011;10101;52.204;9.910;2022-10-15T11:58:17;2.53;;;2.33;;
19877;SDS011;10101;52.204;9.910;2022-10-15T12:00:52;4.90;;;2.60;;
19877;SDS011;10101;52.204;9.910;2022-10-15T12:03:23;3.67;;;2.63;;
19877;SDS011;10101;52.204;9.910;2022-10-15T12:05:53;2.70;;;2.50;;
19877;SDS011;10101;52.204;9.910;2022-10-15T12:08:25;2.80;;;2.20;;
19877;SDS011;10101;52.204;9.910;2022-10-15T12:11:02;2.67;;;2.40;;
19877;SDS011;10101;52.204;9.910;2022-10-15T12:13:37;2.87;;;2.40;;
19877;SDS011;10101;52.204;9.910;2022-10-15T12:16:12;3.20;;;2.63;;
19877;SDS011;10101;52.204;9.910;2022-10-15T12:18:47;2.73;;;2.20;;
19877;SDS011;10101;52.204;9.910;2022-10-15T12:21:31;2.50;;;2.30;;
19877;SDS011;10101;52.204;9.910;2022-10-15T12:24:01;6.57;;;2.40;;
19877;SDS011;10101;52.204;9.910;2022-10-15T12:26:30;3.10;;;2.20;;
19877;SDS011;10101;52.204;9.910;2022-10-15T12:29:00;2.90;;;2.40;;
19877;SDS011;10101;52.204;9.910;2022-10-15T12:31:41;2.57;;;2.37;;
19877;SDS011;10101;52.204;9.910;2022-10-15T12:34:26;2.40;;;2.20;;
19877;SDS011;10101;52.204;9.910;2022-10-15T12:37:02;3.23;;;2.80;;
19877;SDS011;10101;52.204;9.910;2022-10-15T12:39:33;2.97;;;2.40;;
19877;SDS011;10101;52.204;9.910;2022-10-15T12:42:04;4.03;;;2.40;;
19877;SDS011;10101;52.204;9.910;2022-10-15T12:44:46;3.57;;;2.60;;
19877;SDS011;10101;52.204;9.910;2022-10-15T12:47:13;2.53;;;2.30;;
19877;SDS011;10101;52.204;9.910;2022-10-15T12:49:44;2.37;;;1.90;;
19877;SDS011;10101;52.204;9.910;2022-10-15T12:55:24;2.50;;;2.30;;
19877;SDS011;10101;52.204;9.910;2022-10-15T12:57:58;2.23;;;2.03;;
19877;SDS011;10101;52.204;9.910;2022-10-15T13:00:27;3.00;;;2.43;;
19877;SDS011;10101;52.204;9.910;2022-10-15T13:02:56;2.33;;;2.13;;
19877;SDS011;10101;52.204;9.910;2022-10-15T13:05:33;2.90;;;2.50;;
19877;SDS011;10101;52.204;9.910;2022-10-15T13:08:01;5.90;;;2.60;;
19877;SDS011;10101;52.204;9.910;2022-10-15T13:10:32;2.67;;;2.27;;
19877;SDS011;10101;52.204;9.910;2022-10-15T13:13:06;2.37;;;1.97;;
19877;SDS011;10101;52.204;9.910;2022-10-15T13:15:38;3.17;;;2.43;;
19877;SDS011;10101;52.204;9.910;2022-10-15T13:18:06;2.00;;;1.80;;
19877;SDS011;10101;52.204;9.910;2022-10-15T13:20:37;1.77;;;1.67;;
19877;SDS011;10101;52.204;9.910;2022-10-15T13:23:06;2.60;;;2.30;;
19877;SDS011;10101;52.204;9.910;2022-10-15T13:25:34;2.43;;;1.83;;
19877;SDS011;10101;52.204;9.910;2022-10-15T13:28:01;1.60;;;1.50;;
19877;SDS011;10101;52.204;9.910;2022-10-15T13:30:48;4.43;;;1.90;;
19877;SDS011;10101;52.204;9.910;2022-10-15T13:33:15;2.20;;;1.63;;
19877;SDS011;10101;52.204;9.910;2022-10-15T13:35:42;1.90;;;1.60;;
19877;SDS011;10101;52.204;9.910;2022-10-15T13:38:12;1.93;;;1.60;;
19877;SDS011;10101;52.204;9.910;2022-10-15T13:40:46;1.37;;;1.27;;
19877;SDS011;10101;52.204;9.910;2022-10-15T13:43:15;1.60;;;1.20;;
19877;SDS011;10101;52.204;9.910;2022-10-15T13:45:48;1.37;;;1.27;;
19877;SDS011;10101;52.204;9.910;2022-10-15T13:48:19;1.20;;;1.10;;
19877;SDS011;10101;52.204;9.910;2022-10-15T13:50:47;3.43;;;1.10;;
19877;SDS011;10101;52.204;9.910;2022-10-15T13:53:18;0.90;;;0.90;;
19877;SDS011;10101;52.204;9.910;2022-10-15T13:55:49;0.80;;;0.80;;
19877;SDS011;10101;52.204;9.910;2022-10-15T13:58:18;1.50;;;0.80;;
19877;SDS011;10101;52.204;9.910;2022-10-15T14:00:49;1.00;;;1.00;;
19877;SDS011;10101;52.204;9.910;2022-10-15T14:03:21;0.80;;;0.80;;
19877;SDS011;10101;52.204;9.910;2022-10-15T14:05:49;0.77;;;0.77;;
19877;SDS011;10101;52.204;9.910;2022-10-15T14:08:19;0.90;;;0.90;;
19877;SDS011;10101;52.204;9.910;2022-10-15T14:10:51;0.70;;;0.70;;
19877;SDS011;10101;52.204;9.910;2022-10-15T14:13:19;1.37;;;0.67;;
19877;SDS011;10101;52.204;9.910;2022-10-15T14:15:51;1.80;;;0.70;;
19877;SDS011;10101;52.204;9.910;2022-10-15T14:18:28;0.97;;;0.87;;
19877;SDS011;10101;52.204;9.910;2022-10-15T14:20:59;0.80;;;0.80;;
19877;SDS011;10101;52.204;9.910;2022-10-15T14:23:26;0.77;;;0.70;;
19877;SDS011;10101;52.204;9.910;2022-10-15T14:25:55;0.80;;;0.80;;
19877;SDS011;10101;52.204;9.910;2022-10-15T14:28:23;2.07;;;0.70;;
19877;SDS011;10101;52.204;9.910;2022-10-15T14:30:52;0.70;;;0.50;;
19877;SDS011;10101;52.204;9.910;2022-10-15T14:36:24;0.73;;;0.50;;
19877;SDS011;10101;52.204;9.910;2022-10-15T14:38:53;0.50;;;0.50;;
19877;SDS011;10101;52.204;9.910;2022-10-15T14:41:21;0.60;;;0.60;;
19877;SDS011;10101;52.204;9.910;2022-10-15T14:44:04;0.50;;;0.50;;
19877;SDS011;10101;52.204;9.910;2022-10-15T14:46:43;0.50;;;0.50;;
19877;SDS011;10101;52.204;9.910;2022-10-15T14:49:19;0.80;;;0.50;;
19877;SDS011;10101;52.204;9.910;2022-10-15T14:51:57;0.50;;;0.50;;
19877;SDS011;10101;52.204;9.910;2022-10-15T14:54:30;0.53;;;0.53;;
19877;SDS011;10101;52.204;9.910;2022-10-15T14:57:01;0.40;;;0.40;;
19877;SDS011;10101;52.204;9.910;2022-10-15T14:59:30;1.70;;;0.63;;
19877;SDS011;10101;52.204;9.910;2022-10-15T15:02:02;1.43;;;0.50;;
19877;SDS011;10101;52.204;9.910;2022-10-15T15:04:33;0.40;;;0.40;;
19877;SDS011;10101;52.204;9.910;2022-10-15T15:07:02;0.83;;;0.50;;
19877;SDS011;10101;52.204;9.910;2022-10-15T15:09:35;0.60;;;0.60;;